Time;durP1;ratioP1;P1;durP2;ratioP2;P2;SDS_P1;SDS_P2;PMS_P1;PMS_P2;Temp;Humidity;BMP_temperature;BMP_pressure;BME280_temperature;BME280_humidity;BME280_pressure;Samples;Min_cycle;Max_cycle;Signal;HPM_P1;HPM_P2
2022/01/07 00:01:30;;;;;;;10.15;4.97;;;;;;;;;;5096940;28;20024;-73
2022/01/07 00:03:57;;;;;;;12.98;4.90;;;;;;;;;;5097148;28;20024;-73
2022/01/07 00:06:23;;;;;;;9.93;4.53;;;;;;;;;;5095378;28;20047;-73
2022/01/07 00:08:49;;;;;;;9.70;5.00;;;;;;;;;;5096865;28;20141;-73
2022/01/07 00:11:16;;;;;;;7.10;4.32;;;;;;;;;;5096828;28;20027;-73
2022/01/07 00:13:42;;;;;;;8.75;5.05;;;;;;;;;;5096703;28;20426;-73
2022/01/07 00:16:08;;;;;;;7.93;3.78;;;;;;;;;;5096816;28;20065;-73
2022/01/07 00:18:35;;;;;;;8.27;4.35;;;;;;;;;;5096640;28;20471;-73
2022/01/07 00:21:01;;;;;;;6.88;3.88;;;;;;;;;;5096340;28;20468;-73
2022/01/07 00:23:27;;;;;;;6.40;3.65;;;;;;;;;;5095432;28;20111;-73
2022/01/07 00:25:54;;;;;;;8.48;3.88;;;;;;;;;;5096571;28;20034;-73
2022/01/07 00:28:20;;;;;;;7.45;3.45;;;;;;;;;;5096407;28;20020;-73
2022/01/07 00:30:47;;;;;;;7.93;3.30;;;;;;;;;;5096576;28;20483;-73
2022/01/07 00:33:13;;;;;;;7.63;3.33;;;;;;;;;;5096427;28;20036;-73
2022/01/07 00:35:40;;;;;;;7.05;3.13;;;;;;;;;;5094688;28;20024;-73
2022/01/07 00:38:06;;;;;;;6.93;3.55;;;;;;;;;;5096347;28;20051;-73
2022/01/07 00:40:33;;;;;;;7.68;3.72;;;;;;;;;;5095957;28;20093;-73
2022/01/07 00:42:59;;;;;;;6.78;3.63;;;;;;;;;;5096370;28;20488;-73
2022/01/07 00:45:26;;;;;;;7.50;3.20;;;;;;;;;;5096416;28;20032;-73
2022/01/07 00:47:52;;;;;;;7.05;3.13;;;;;;;;;;5095772;28;20761;-73
2022/01/07 00:50:20;;;;;;;7.75;3.20;;;;;;;;;;5094406;28;20109;-72
2022/01/07 00:52:47;;;;;;;6.40;2.72;;;;;;;;;;5095983;28;20020;-72
2022/01/07 00:55:13;;;;;;;6.72;3.00;;;;;;;;;;5095576;28;20031;-72
2022/01/07 00:57:40;;;;;;;6.90;2.67;;;;;;;;;;5096093;28;20543;-73
2022/01/07 01:00:08;;;;;;;6.30;3.33;;;;;;;;;;5096082;28;20028;-73
2022/01/07 01:02:34;;;;;;;6.13;3.03;;;;;;;;;;5095480;28;20016;-73
2022/01/07 01:05:01;;;;;;;6.43;2.38;;;;;;;;;;5095791;28;20024;-73
2022/01/07 01:07:27;;;;;;;4.47;2.10;;;;;;;;;;5094496;28;20590;-73
2022/01/07 01:09:53;;;;;;;4.85;2.15;;;;;;;;;;5095302;28;20039;-73
2022/01/07 01:12:19;;;;;;;8.35;3.38;;;;;;;;;;5095663;28;20024;-73
2022/01/07 01:14:45;;;;;;;5.88;2.50;;;;;;;;;;5095652;28;20020;-73
2022/01/07 01:17:12;;;;;;;3.58;2.10;;;;;;;;;;5095060;28;20020;-72
2022/01/07 01:19:38;;;;;;;3.75;1.90;;;;;;;;;;5095761;28;20032;-73
2022/01/07 01:22:05;;;;;;;5.07;2.15;;;;;;;;;;5095462;28;20028;-73
2022/01/07 01:24:31;;;;;;;4.10;1.73;;;;;;;;;;5094988;28;20104;-73
2022/01/07 01:26:58;;;;;;;8.10;1.92;;;;;;;;;;5095682;28;20024;-73
2022/01/07 01:29:24;;;;;;;2.97;1.80;;;;;;;;;;5095316;28;20031;-72
2022/01/07 01:31:51;;;;;;;3.47;2.20;;;;;;;;;;5094870;28;20535;-73
2022/01/07 01:34:17;;;;;;;4.22;1.83;;;;;;;;;;5095145;28;20032;-73
2022/01/07 01:36:43;;;;;;;3.00;1.90;;;;;;;;;;5095097;28;20487;-72
2022/01/07 01:39:12;;;;;;;2.67;1.73;;;;;;;;;;5093384;28;20112;-73
2022/01/07 01:41:38;;;;;;;4.72;2.55;;;;;;;;;;5095044;28;20421;-73
2022/01/07 01:44:05;;;;;;;5.25;2.00;;;;;;;;;;5094607;28;20051;-73
2022/01/07 01:46:31;;;;;;;3.42;1.83;;;;;;;;;;5095024;28;20020;-73
2022/01/07 01:48:57;;;;;;;4.47;2.20;;;;;;;;;;5094776;28;20110;-73
2022/01/07 01:51:24;;;;;;;3.15;1.65;;;;;;;;;;5094749;28;20545;-73
2022/01/07 01:53:50;;;;;;;4.47;2.00;;;;;;;;;;5094829;28;20028;-72
2022/01/07 01:56:16;;;;;;;5.25;2.15;;;;;;;;;;5094828;28;20016;-72
2022/01/07 01:58:42;;;;;;;4.15;2.20;;;;;;;;;;5094497;28;20469;-73
2022/01/07 02:01:09;;;;;;;4.88;2.47;;;;;;;;;;5095012;28;20024;-73
2022/01/07 02:03:35;;;;;;;4.10;2.42;;;;;;;;;;5093925;28;20153;-73
2022/01/07 02:06:01;;;;;;;5.70;2.60;;;;;;;;;;5094409;28;20017;-73
2022/01/07 02:08:29;;;;;;;3.60;1.88;;;;;;;;;;5094649;28;20024;-73
2022/01/07 02:10:55;;;;;;;5.40;2.20;;;;;;;;;;5094505;28;20020;-73
2022/01/07 02:13:22;;;;;;;4.25;1.85;;;;;;;;;;5094174;28;20055;-73
2022/01/07 02:15:48;;;;;;;8.63;2.88;;;;;;;;;;5094461;28;20377;-73
2022/01/07 02:18:17;;;;;;;4.43;2.38;;;;;;;;;;5094311;28;20047;-73
2022/01/07 02:20:43;;;;;;;7.00;2.67;;;;;;;;;;5093913;28;20028;-73
2022/01/07 02:23:09;;;;;;;3.50;1.92;;;;;;;;;;5094491;28;20457;-73
2022/01/07 02:25:35;;;;;;;4.80;1.83;;;;;;;;;;5094615;28;20031;-74
2022/01/07 02:28:03;;;;;;;5.72;2.45;;;;;;;;;;5093891;28;20024;-73
2022/01/07 02:30:31;;;;;;;3.65;2.00;;;;;;;;;;5094301;28;20024;-73
2022/01/07 02:32:58;;;;;;;3.33;1.40;;;;;;;;;;5094204;28;20052;-72
2022/01/07 02:35:26;;;;;;;3.72;1.73;;;;;;;;;;5093715;28;20053;-72
2022/01/07 02:37:52;;;;;;;2.05;1.40;;;;;;;;;;5094089;28;20028;-73
2022/01/07 02:40:18;;;;;;;3.85;1.92;;;;;;;;;;5093660;28;20476;-72
2022/01/07 02:42:45;;;;;;;3.63;1.60;;;;;;;;;;5094193;28;20028;-73
2022/01/07 02:45:13;;;;;;;7.25;2.10;;;;;;;;;;5093963;28;20024;-73
2022/01/07 02:47:57;;;;;;;5.43;2.20;;;;;;;;;;5093494;28;20031;-73
2022/01/07 02:50:25;;;;;;;4.07;1.80;;;;;;;;;;5093914;28;20372;-73
2022/01/07 02:52:51;;;;;;;3.20;1.63;;;;;;;;;;5093897;28;20024;-72
2022/01/07 02:55:18;;;;;;;3.83;2.00;;;;;;;;;;5093652;28;20384;-72
2022/01/07 02:57:44;;;;;;;2.97;1.77;;;;;;;;;;5094174;28;20035;-72
2022/01/07 03:00:11;;;;;;;3.65;1.70;;;;;;;;;;5093758;28;20020;-73
2022/01/07 03:02:37;;;;;;;3.42;1.80;;;;;;;;;;5093329;28;20054;-73
2022/01/07 03:05:05;;;;;;;5.95;2.38;;;;;;;;;;5092452;28;20484;-73
2022/01/07 03:07:31;;;;;;;4.03;2.45;;;;;;;;;;5093660;28;20372;-73
2022/01/07 03:09:57;;;;;;;3.17;1.67;;;;;;;;;;5093230;28;20027;-73
2022/01/07 03:12:24;;;;;;;3.75;1.73;;;;;;;;;;5093858;28;20024;-73
2022/01/07 03:14:50;;;;;;;4.20;1.83;;;;;;;;;;5093346;28;20024;-73
2022/01/07 03:17:16;;;;;;;3.17;1.58;;;;;;;;;;5092948;28;20047;-73
2022/01/07 03:19:42;;;;;;;3.65;2.17;;;;;;;;;;5093562;28;20081;-73
2022/01/07 03:22:09;;;;;;;2.35;1.25;;;;;;;;;;5093570;28;20017;-73
2022/01/07 03:24:35;;;;;;;2.83;1.58;;;;;;;;;;5093078;28;20085;-73
2022/01/07 03:27:01;;;;;;;4.85;1.85;;;;;;;;;;5094084;28;20040;-73
2022/01/07 03:29:27;;;;;;;3.28;1.40;;;;;;;;;;5092946;28;20519;-73
2022/01/07 03:31:55;;;;;;;3.42;1.80;;;;;;;;;;5093383;28;20119;-73
2022/01/07 03:34:21;;;;;;;4.78;1.85;;;;;;;;;;5093600;28;20016;-72
2022/01/07 03:36:48;;;;;;;2.47;1.50;;;;;;;;;;5092960;28;20024;-72
2022/01/07 03:39:14;;;;;;;3.22;1.73;;;;;;;;;;5093163;28;20064;-72
2022/01/07 03:41:40;;;;;;;3.35;1.63;;;;;;;;;;5093357;28;20027;-73
2022/01/07 03:44:06;;;;;;;4.82;2.10;;;;;;;;;;5092909;28;20357;-73
2022/01/07 03:46:32;;;;;;;4.55;1.95;;;;;;;;;;5093435;28;20024;-72
2022/01/07 03:48:59;;;;;;;4.20;2.17;;;;;;;;;;5093298;28;20078;-73
2022/01/07 03:51:25;;;;;;;4.82;2.33;;;;;;;;;;5092880;28;20024;-73
2022/01/07 03:53:51;;;;;;;5.68;2.60;;;;;;;;;;5092026;28;20030;-72
2022/01/07 03:56:18;;;;;;;4.18;2.00;;;;;;;;;;5093278;28;20525;-72
2022/01/07 03:58:45;;;;;;;4.45;2.22;;;;;;;;;;5092681;28;20461;-72
2022/01/07 04:01:11;;;;;;;4.07;2.25;;;;;;;;;;5093092;28;20091;-73
2022/01/07 04:03:37;;;;;;;3.47;1.88;;;;;;;;;;5093400;28;20020;-73
2022/01/07 04:06:04;;;;;;;4.90;2.45;;;;;;;;;;5092664;28;20548;-73
2022/01/07 04:08:30;;;;;;;4.18;2.15;;;;;;;;;;5093035;28;20034;-73
2022/01/07 04:10:56;;;;;;;5.15;1.98;;;;;;;;;;5091704;28;20024;-73
2022/01/07 04:13:22;;;;;;;3.08;1.73;;;;;;;;;;5092539;28;20491;-73
2022/01/07 04:15:49;;;;;;;4.03;1.80;;;;;;;;;;5093019;28;20460;-73
2022/01/07 04:18:15;;;;;;;4.95;2.35;;;;;;;;;;5092667;28;20048;-73
2022/01/07 04:20:41;;;;;;;5.22;2.13;;;;;;;;;;5092558;28;20028;-73
2022/01/07 04:23:08;;;;;;;7.00;2.55;;;;;;;;;;5093051;28;20020;-73
2022/01/07 04:25:34;;;;;;;4.13;2.40;;;;;;;;;;5093667;28;20036;-72
2022/01/07 04:28:02;;;;;;;5.65;2.70;;;;;;;;;;5096515;28;20028;-73
2022/01/07 04:30:30;;;;;;;6.78;2.53;;;;;;;;;;5096613;28;20028;-73
2022/01/07 04:32:56;;;;;;;6.53;2.60;;;;;;;;;;5096064;28;20188;-73
2022/01/07 04:35:23;;;;;;;5.95;2.97;;;;;;;;;;5096494;28;20032;-73
2022/01/07 04:37:49;;;;;;;5.07;2.45;;;;;;;;;;5096713;28;20031;-73
2022/01/07 04:40:17;;;;;;;5.40;2.78;;;;;;;;;;5095979;28;20047;-73
2022/01/07 04:42:43;;;;;;;5.03;2.45;;;;;;;;;;5096385;28;20024;-73
2022/01/07 04:45:11;;;;;;;6.93;2.65;;;;;;;;;;5094952;28;20553;-73
2022/01/07 04:47:37;;;;;;;6.13;2.58;;;;;;;;;;5094551;28;20028;-74
2022/01/07 04:50:04;;;;;;;4.82;2.60;;;;;;;;;;5096421;28;20034;-73
2022/01/07 04:52:30;;;;;;;6.18;2.72;;;;;;;;;;5096025;28;20051;-72
2022/01/07 04:54:57;;;;;;;5.30;2.70;;;;;;;;;;5095656;28;20028;-72
2022/01/07 04:57:23;;;;;;;4.90;2.25;;;;;;;;;;5096004;28;20092;-72
2022/01/07 04:59:49;;;;;;;4.75;2.70;;;;;;;;;;5096099;28;20480;-73
2022/01/07 05:02:19;;;;;;;7.47;3.47;;;;;;;;;;5095477;28;20028;-72
2022/01/07 05:04:45;;;;;;;6.10;3.20;;;;;;;;;;5095843;28;20395;-72
2022/01/07 05:07:11;;;;;;;7.57;2.92;;;;;;;;;;5096064;28;20028;-72
2022/01/07 05:09:38;;;;;;;4.25;2.72;;;;;;;;;;5095448;28;20020;-72
2022/01/07 05:12:04;;;;;;;7.25;3.33;;;;;;;;;;5094515;28;20024;-72
2022/01/07 05:14:30;;;;;;;5.60;2.80;;;;;;;;;;5095719;28;20028;-72
2022/01/07 05:16:57;;;;;;;8.50;3.17;;;;;;;;;;5095044;28;20472;-71
2022/01/07 05:19:23;;;;;;;6.28;3.40;;;;;;;;;;5095745;28;20395;-72
2022/01/07 05:21:49;;;;;;;5.22;2.83;;;;;;;;;;5095144;28;20537;-72
2022/01/07 05:24:16;;;;;;;6.35;3.38;;;;;;;;;;5095403;28;20017;-72
2022/01/07 05:26:42;;;;;;;4.72;2.72;;;;;;;;;;5095532;28;20031;-72
2022/01/07 05:29:08;;;;;;;6.70;3.10;;;;;;;;;;5095111;28;20052;-72
2022/01/07 05:31:34;;;;;;;6.80;3.25;;;;;;;;;;5094076;28;20476;-72
2022/01/07 05:34:01;;;;;;;8.40;3.65;;;;;;;;;;5095471;28;20039;-72
2022/01/07 05:36:28;;;;;;;7.70;3.42;;;;;;;;;;5095146;28;20043;-72
2022/01/07 05:38:54;;;;;;;7.25;3.55;;;;;;;;;;5095290;28;20450;-72
2022/01/07 05:41:20;;;;;;;7.25;4.25;;;;;;;;;;5095158;28;20468;-72
2022/01/07 05:43:47;;;;;;;7.15;3.58;;;;;;;;;;5093426;28;20028;-72
2022/01/07 05:46:15;;;;;;;9.68;4.30;;;;;;;;;;5095322;28;20024;-72
2022/01/07 05:48:44;;;;;;;7.93;4.13;;;;;;;;;;5095286;28;20428;-72
2022/01/07 05:51:11;;;;;;;7.07;3.72;;;;;;;;;;5094523;28;20024;-72
2022/01/07 05:53:37;;;;;;;8.68;4.32;;;;;;;;;;5093563;28;20490;-72
2022/01/07 05:56:04;;;;;;;9.50;4.45;;;;;;;;;;5094845;28;20098;-72
2022/01/07 05:58:30;;;;;;;8.88;4.47;;;;;;;;;;5094459;28;20036;-72
2022/01/07 06:00:56;;;;;;;8.77;4.60;;;;;;;;;;5095040;28;20476;-72
2022/01/07 06:03:23;;;;;;;8.15;4.05;;;;;;;;;;5094712;28;20032;-72
2022/01/07 06:05:49;;;;;;;10.18;4.28;;;;;;;;;;5094218;28;20118;-72
2022/01/07 06:08:15;;;;;;;7.40;4.15;;;;;;;;;;5094699;28;20038;-73
2022/01/07 06:10:41;;;;;;;12.32;6.57;;;;;;;;;;5094593;28;20048;-73
2022/01/07 06:13:08;;;;;;;14.68;5.35;;;;;;;;;;5092806;28;20117;-72
2022/01/07 06:15:34;;;;;;;17.05;7.03;;;;;;;;;;5093207;28;20016;-73
2022/01/07 06:18:03;;;;;;;13.07;6.00;;;;;;;;;;5094148;28;20127;-72
2022/01/07 06:20:29;;;;;;;15.02;7.28;;;;;;;;;;5094336;28;20024;-73
2022/01/07 06:22:55;;;;;;;9.60;4.72;;;;;;;;;;5094620;28;20533;-73
2022/01/07 06:25:21;;;;;;;9.82;5.53;;;;;;;;;;5093877;28;20032;-73
2022/01/07 06:27:48;;;;;;;16.98;6.75;;;;;;;;;;5094362;28;20043;-73
2022/01/07 06:30:14;;;;;;;12.32;5.18;;;;;;;;;;5094252;28;20499;-72
2022/01/07 06:32:40;;;;;;;13.00;5.55;;;;;;;;;;5093782;28;20084;-72
2022/01/07 06:35:07;;;;;;;11.70;5.45;;;;;;;;;;5094154;28;20024;-73
2022/01/07 06:37:33;;;;;;;8.20;4.60;;;;;;;;;;5092753;28;20124;-72
2022/01/07 06:39:59;;;;;;;11.95;6.75;;;;;;;;;;5093683;28;20077;-73
2022/01/07 06:42:25;;;;;;;13.35;7.90;;;;;;;;;;5094231;28;20020;-72
2022/01/07 06:44:51;;;;;;;10.43;5.85;;;;;;;;;;5093868;28;20024;-72
2022/01/07 06:47:18;;;;;;;11.82;7.38;;;;;;;;;;5093564;28;20333;-73
2022/01/07 06:49:44;;;;;;;11.40;6.32;;;;;;;;;;5093462;28;20487;-73
2022/01/07 06:52:10;;;;;;;10.20;6.18;;;;;;;;;;5094093;28;20028;-73
2022/01/07 06:54:36;;;;;;;14.38;7.78;;;;;;;;;;5092182;28;20537;-72
2022/01/07 06:57:02;;;;;;;12.98;7.45;;;;;;;;;;5093847;28;20038;-72
2022/01/07 06:59:29;;;;;;;15.93;9.25;;;;;;;;;;5093649;28;20038;-72
2022/01/07 07:01:55;;;;;;;15.73;7.50;;;;;;;;;;5093385;28;20095;-73
2022/01/07 07:04:21;;;;;;;15.68;7.60;;;;;;;;;;5092444;28;20024;-73
2022/01/07 07:06:48;;;;;;;12.63;6.88;;;;;;;;;;5093732;28;20384;-72
2022/01/07 07:09:15;;;;;;;16.92;8.68;;;;;;;;;;5093163;28;20057;-72
2022/01/07 07:11:43;;;;;;;16.02;8.10;;;;;;;;;;5093795;28;20468;-72
2022/01/07 07:14:10;;;;;;;17.15;9.35;;;;;;;;;;5093723;28;20023;-72
2022/01/07 07:16:36;;;;;;;12.68;7.70;;;;;;;;;;5093182;28;20027;-72
2022/01/07 07:19:02;;;;;;;14.00;8.43;;;;;;;;;;5093237;28;20456;-72
2022/01/07 07:21:28;;;;;;;14.75;9.70;;;;;;;;;;5093125;28;20113;-72
2022/01/07 07:23:55;;;;;;;14.02;8.15;;;;;;;;;;5093474;28;20475;-72
2022/01/07 07:26:21;;;;;;;15.57;10.32;;;;;;;;;;5093296;28;20032;-72
2022/01/07 07:28:47;;;;;;;15.82;10.02;;;;;;;;;;5092998;28;20103;-72
2022/01/07 07:31:16;;;;;;;16.67;9.50;;;;;;;;;;5093436;28;20059;-72
2022/01/07 07:36:32;;;;;;;15.60;8.57;;;;;;;;;;5071476;28;20113;-72
2022/01/07 07:39:03;;;;;;;24.67;13.30;;;;;;;;;;5093219;28;20029;-72
2022/01/07 07:41:29;;;;;;;14.15;8.40;;;;;;;;;;5092052;28;20024;-72
2022/01/07 07:43:57;;;;;;;19.00;8.90;;;;;;;;;;5092892;28;20051;-72
2022/01/07 07:46:24;;;;;;;13.75;7.70;;;;;;;;;;5093245;28;20016;-73
2022/01/07 07:48:51;;;;;;;22.98;13.02;;;;;;;;;;5093459;28;20094;-72
2022/01/07 07:51:18;;;;;;;23.83;12.48;;;;;;;;;;5092854;28;20028;-72
2022/01/07 07:53:44;;;;;;;22.35;12.15;;;;;;;;;;5093145;28;20476;-72
2022/01/07 07:56:12;;;;;;;24.35;14.45;;;;;;;;;;5093480;28;20107;-72
2022/01/07 07:58:38;;;;;;;21.98;11.57;;;;;;;;;;5092649;28;20032;-72
2022/01/07 08:01:05;;;;;;;22.48;12.23;;;;;;;;;;5093704;28;20078;-73
2022/01/07 08:03:31;;;;;;;21.30;9.63;;;;;;;;;;5096977;28;20024;-72
2022/01/07 08:05:57;;;;;;;17.52;9.40;;;;;;;;;;5097285;28;20024;-72
2022/01/07 08:08:23;;;;;;;26.38;15.55;;;;;;;;;;5097048;28;20024;-72
2022/01/07 08:10:56;;;;;;;28.30;15.68;;;;;;;;;;5096950;28;20027;-72
2022/01/07 08:13:28;;;;;;;26.77;14.43;;;;;;;;;;5097191;28;20023;-72
2022/01/07 08:15:58;;;;;;;23.67;11.55;;;;;;;;;;5096870;28;20048;-72
2022/01/07 08:18:25;;;;;;;21.83;12.30;;;;;;;;;;5096189;28;20052;-72
2022/01/07 08:20:51;;;;;;;27.02;17.00;;;;;;;;;;5095328;28;20028;-72
2022/01/07 08:23:18;;;;;;;55.65;23.23;;;;;;;;;;5096852;28;20384;-73
2022/01/07 08:25:45;;;;;;;25.88;14.63;;;;;;;;;;5096154;28;20067;-72
2022/01/07 08:28:13;;;;;;;29.70;14.23;;;;;;;;;;5096779;28;20024;-72
2022/01/07 08:31:00;;;;;;;20.48;12.57;;;;;;;;;;5096716;28;20527;-72
2022/01/07 08:36:10;;;;;;;19.88;11.13;;;;;;;;;;5096497;28;20121;-72
2022/01/07 08:38:37;;;;;;;27.08;14.10;;;;;;;;;;5096329;28;20028;-73
2022/01/07 08:41:03;;;;;;;21.27;12.55;;;;;;;;;;5095925;28;20024;-73
2022/01/07 08:43:30;;;;;;;19.42;11.45;;;;;;;;;;5095079;28;20024;-73
2022/01/07 08:45:56;;;;;;;24.23;14.48;;;;;;;;;;5096394;28;20031;-74
2022/01/07 08:48:22;;;;;;;16.67;10.77;;;;;;;;;;5096236;28;20052;-73
2022/01/07 08:50:48;;;;;;;22.67;13.05;;;;;;;;;;5096164;28;20024;-73
2022/01/07 08:53:14;;;;;;;22.40;12.80;;;;;;;;;;5095721;28;20020;-73
2022/01/07 08:55:41;;;;;;;22.85;12.68;;;;;;;;;;5095993;28;20054;-73
2022/01/07 08:58:07;;;;;;;24.48;13.40;;;;;;;;;;5095925;28;20024;-73
2022/01/07 09:00:33;;;;;;;19.23;11.48;;;;;;;;;;5095563;28;20099;-73
2022/01/07 09:03:00;;;;;;;22.17;12.75;;;;;;;;;;5096101;28;20095;-73
2022/01/07 09:05:27;;;;;;;21.88;12.55;;;;;;;;;;5095704;28;20095;-74
2022/01/07 09:07:53;;;;;;;23.27;14.45;;;;;;;;;;5095374;28;20028;-73
2022/01/07 09:10:19;;;;;;;18.65;12.40;;;;;;;;;;5096075;28;20064;-72
2022/01/07 09:12:46;;;;;;;20.52;12.43;;;;;;;;;;5095299;28;20476;-74
2022/01/07 09:15:13;;;;;;;22.90;15.45;;;;;;;;;;5095188;28;20070;-72
2022/01/07 09:17:41;;;;;;;23.48;16.10;;;;;;;;;;5095302;28;20072;-72
2022/01/07 09:20:08;;;;;;;23.70;13.77;;;;;;;;;;5095744;28;20034;-72
2022/01/07 09:22:35;;;;;;;17.13;10.70;;;;;;;;;;5095102;28;20024;-72
2022/01/07 09:25:01;;;;;;;21.00;11.82;;;;;;;;;;5095689;28;20035;-72
2022/01/07 09:27:27;;;;;;;21.45;13.00;;;;;;;;;;5095474;28;20364;-72
2022/01/07 09:29:54;;;;;;;25.23;12.70;;;;;;;;;;5095109;28;20028;-72
2022/01/07 09:32:20;;;;;;;20.30;12.30;;;;;;;;;;5095384;28;20034;-72
2022/01/07 09:34:46;;;;;;;23.55;11.95;;;;;;;;;;5095207;28;20070;-72
2022/01/07 09:37:12;;;;;;;22.05;13.45;;;;;;;;;;5095072;28;20028;-72
2022/01/07 09:39:38;;;;;;;25.42;14.13;;;;;;;;;;5095114;28;20036;-72
2022/01/07 09:42:05;;;;;;;20.25;11.10;;;;;;;;;;5093504;28;20383;-73
2022/01/07 09:44:32;;;;;;;22.25;12.00;;;;;;;;;;5095482;28;20020;-72
2022/01/07 09:46:59;;;;;;;23.60;13.60;;;;;;;;;;5095019;28;20040;-72
2022/01/07 09:49:27;;;;;;;20.83;11.65;;;;;;;;;;5094209;28;20024;-72
2022/01/07 09:51:53;;;;;;;19.33;11.73;;;;;;;;;;5094543;28;20047;-72
2022/01/07 09:54:19;;;;;;;18.50;11.15;;;;;;;;;;5094865;28;20031;-72
2022/01/07 09:56:45;;;;;;;19.40;10.77;;;;;;;;;;5094515;28;20071;-72
2022/01/07 09:59:12;;;;;;;22.85;12.18;;;;;;;;;;5094639;28;20109;-72
2022/01/07 10:01:55;;;;;;;20.40;11.52;;;;;;;;;;5095259;28;20028;-73
2022/01/07 10:04:37;;;;;;;22.60;12.35;;;;;;;;;;5094317;28;20027;-73
2022/01/07 10:07:20;;;;;;;18.30;11.93;;;;;;;;;;5094515;28;20032;-73
2022/01/07 10:10:05;;;;;;;19.58;10.93;;;;;;;;;;5094503;28;20477;-72
2022/01/07 10:12:52;;;;;;;20.42;12.43;;;;;;;;;;5094703;28;20062;-72
2022/01/07 10:15:19;;;;;;;17.02;9.82;;;;;;;;;;5083978;28;20047;-72
2022/01/07 10:18:02;;;;;;;18.73;11.35;;;;;;;;;;5092415;28;20040;-72
2022/01/07 10:20:33;;;;;;;17.90;11.57;;;;;;;;;;5092999;28;20024;-73
2022/01/07 10:23:00;;;;;;;24.70;13.40;;;;;;;;;;5093506;28;20020;-72
2022/01/07 10:25:28;;;;;;;21.10;10.93;;;;;;;;;;5093886;28;20030;-72
2022/01/07 10:28:06;;;;;;;28.30;14.98;;;;;;;;;;5094030;28;20480;-72
2022/01/07 10:30:40;;;;;;;24.75;13.95;;;;;;;;;;5094234;28;20016;-72
2022/01/07 10:33:16;;;;;;;23.95;13.27;;;;;;;;;;5093804;28;20054;-72
2022/01/07 10:35:43;;;;;;;17.88;10.50;;;;;;;;;;5092829;28;20036;-72
2022/01/07 10:38:14;;;;;;;31.10;17.60;;;;;;;;;;5094087;28;20120;-73
2022/01/07 10:40:42;;;;;;;18.80;11.60;;;;;;;;;;5094371;28;20430;-73
2022/01/07 10:43:09;;;;;;;19.75;12.02;;;;;;;;;;5093956;28;20468;-72
2022/01/07 10:45:36;;;;;;;17.80;10.85;;;;;;;;;;5093445;28;20032;-72
2022/01/07 10:48:02;;;;;;;26.85;15.40;;;;;;;;;;5094410;28;20028;-72
2022/01/07 10:50:29;;;;;;;20.67;13.00;;;;;;;;;;5093819;28;20020;-72
2022/01/07 10:53:15;;;;;;;21.52;12.13;;;;;;;;;;5093416;28;20024;-72
2022/01/07 10:55:56;;;;;;;16.98;10.65;;;;;;;;;;5083063;28;20036;-73
2022/01/07 10:58:23;;;;;;;16.58;10.30;;;;;;;;;;5093895;28;20055;-73
2022/01/07 11:00:49;;;;;;;18.00;11.63;;;;;;;;;;5093337;28;20099;-73
2022/01/07 11:03:15;;;;;;;17.20;11.30;;;;;;;;;;5093494;28;20031;-73
2022/01/07 11:05:42;;;;;;;17.85;10.10;;;;;;;;;;5093716;28;20421;-73
2022/01/07 11:08:09;;;;;;;19.05;11.45;;;;;;;;;;5093096;28;20024;-73
2022/01/07 11:10:38;;;;;;;16.55;10.43;;;;;;;;;;5093533;28;20095;-73
2022/01/07 11:13:05;;;;;;;15.68;9.55;;;;;;;;;;5093414;28;20027;-73
2022/01/07 11:15:31;;;;;;;17.55;10.95;;;;;;;;;;5093158;28;20024;-73
2022/01/07 11:17:57;;;;;;;16.00;9.77;;;;;;;;;;5093293;28;20123;-73
2022/01/07 11:20:24;;;;;;;14.27;8.68;;;;;;;;;;5093390;28;20538;-74
2022/01/07 11:22:51;;;;;;;15.25;9.23;;;;;;;;;;5093764;28;20094;-72
2022/01/07 11:25:18;;;;;;;16.60;10.02;;;;;;;;;;5092161;28;20146;-73
2022/01/07 11:27:48;;;;;;;15.95;9.70;;;;;;;;;;5093163;28;20028;-73
2022/01/07 11:30:17;;;;;;;16.13;10.18;;;;;;;;;;5093528;28;20020;-73
2022/01/07 11:32:44;;;;;;;19.08;10.77;;;;;;;;;;5093481;28;20154;-73
2022/01/07 11:35:20;;;;;;;16.92;10.98;;;;;;;;;;5095346;28;20028;-73
2022/01/07 11:37:53;;;;;;;17.13;12.80;;;;;;;;;;5097094;28;20066;-73
2022/01/07 11:40:31;;;;;;;19.58;11.77;;;;;;;;;;5097348;28;20099;-73
2022/01/07 11:42:59;;;;;;;19.33;12.27;;;;;;;;;;5097067;28;20050;-73
2022/01/07 11:45:28;;;;;;;21.60;13.13;;;;;;;;;;5097652;28;20372;-73
2022/01/07 11:47:58;;;;;;;27.92;16.60;;;;;;;;;;5097181;28;20031;-74
2022/01/07 11:50:24;;;;;;;24.75;14.75;;;;;;;;;;5096841;28;20105;-73
2022/01/07 11:53:04;;;;;;;23.58;14.35;;;;;;;;;;5097516;28;20502;-73
2022/01/07 11:55:31;;;;;;;29.17;16.15;;;;;;;;;;5097297;28;20480;-73
2022/01/07 11:57:57;;;;;;;24.13;14.82;;;;;;;;;;5096546;28;20020;-73
2022/01/07 12:00:42;;;;;;;34.45;18.50;;;;;;;;;;5097061;28;20423;-73
2022/01/07 12:03:08;;;;;;;24.48;14.05;;;;;;;;;;5096722;28;20025;-73
2022/01/07 12:05:34;;;;;;;34.15;18.80;;;;;;;;;;5097007;28;20574;-73
2022/01/07 12:08:01;;;;;;;19.60;13.57;;;;;;;;;;5097176;28;20097;-73
2022/01/07 12:10:27;;;;;;;35.17;18.23;;;;;;;;;;5096481;28;20074;-73
2022/01/07 12:13:02;;;;;;;31.98;17.10;;;;;;;;;;5097154;28;20035;-73
2022/01/07 12:15:28;;;;;;;24.27;13.90;;;;;;;;;;5096777;28;20074;-73
2022/01/07 12:17:55;;;;;;;27.35;15.25;;;;;;;;;;5096083;28;20143;-73
2022/01/07 12:20:43;;;;;;;22.38;14.30;;;;;;;;;;5097182;28;20396;-73
2022/01/07 12:23:09;;;;;;;24.83;16.15;;;;;;;;;;5096584;28;20379;-73
2022/01/07 12:25:36;;;;;;;24.50;14.35;;;;;;;;;;5096142;28;20020;-73
2022/01/07 12:28:05;;;;;;;23.17;12.75;;;;;;;;;;5096448;28;20030;-73
2022/01/07 12:30:31;;;;;;;26.17;15.20;;;;;;;;;;5096394;28;20059;-73
2022/01/07 12:33:05;;;;;;;27.30;16.30;;;;;;;;;;5096025;28;20476;-73
2022/01/07 12:35:31;;;;;;;30.50;15.98;;;;;;;;;;5096387;28;20032;-73
2022/01/07 12:37:57;;;;;;;28.30;16.63;;;;;;;;;;5096231;28;20091;-73
2022/01/07 12:40:23;;;;;;;30.00;18.10;;;;;;;;;;5095082;28;20024;-73
2022/01/07 12:42:50;;;;;;;30.25;16.80;;;;;;;;;;5096128;28;20073;-73
2022/01/07 12:45:19;;;;;;;31.77;18.35;;;;;;;;;;5095730;28;20357;-73
2022/01/07 12:47:45;;;;;;;27.65;16.05;;;;;;;;;;5095441;28;20099;-73
2022/01/07 12:50:12;;;;;;;29.85;15.23;;;;;;;;;;5094756;28;20421;-73
2022/01/07 12:52:41;;;;;;;33.95;19.30;;;;;;;;;;5095745;28;20055;-73
2022/01/07 12:55:26;;;;;;;27.77;16.30;;;;;;;;;;5095877;28;20044;-73
2022/01/07 12:57:57;;;;;;;27.30;17.20;;;;;;;;;;5095822;28;20036;-73
2022/01/07 13:00:26;;;;;;;24.83;15.23;;;;;;;;;;5094219;28;20113;-73
2022/01/07 13:02:55;;;;;;;28.25;16.83;;;;;;;;;;5096203;28;20016;-73
2022/01/07 13:05:29;;;;;;;32.72;18.48;;;;;;;;;;5095749;28;20020;-73
2022/01/07 13:08:01;;;;;;;25.05;15.05;;;;;;;;;;5095374;28;20016;-73
2022/01/07 13:10:30;;;;;;;34.80;19.30;;;;;;;;;;5095683;28;20020;-73
2022/01/07 13:12:58;;;;;;;34.70;21.13;;;;;;;;;;5095583;28;20095;-73
2022/01/07 13:15:34;;;;;;;31.67;17.73;;;;;;;;;;5095820;28;20024;-73
2022/01/07 13:18:23;;;;;;;31.95;19.75;;;;;;;;;;5095218;28;20052;-73
2022/01/07 13:20:55;;;;;;;27.52;16.85;;;;;;;;;;5087090;28;20043;-73
2022/01/07 13:23:24;;;;;;;28.73;16.67;;;;;;;;;;5095628;28;20433;-73
2022/01/07 13:25:50;;;;;;;28.95;18.77;;;;;;;;;;5095458;28;20066;-72
2022/01/07 13:28:28;;;;;;;26.83;17.45;;;;;;;;;;5095002;28;20020;-73
2022/01/07 13:30:55;;;;;;;31.65;19.00;;;;;;;;;;5095410;28;20074;-72
2022/01/07 13:33:25;;;;;;;25.05;15.85;;;;;;;;;;5094389;28;20423;-72
2022/01/07 13:35:56;;;;;;;27.05;16.25;;;;;;;;;;5093532;28;20441;-72
2022/01/07 13:38:22;;;;;;;23.52;14.60;;;;;;;;;;5095207;28;20035;-72
2022/01/07 13:40:49;;;;;;;22.13;13.60;;;;;;;;;;5095086;28;20095;-73
2022/01/07 13:43:16;;;;;;;21.38;13.18;;;;;;;;;;5094696;28;20030;-73
2022/01/07 13:45:43;;;;;;;17.02;11.10;;;;;;;;;;5095251;28;20534;-74
2022/01/07 13:48:10;;;;;;;24.55;14.02;;;;;;;;;;5094565;28;20024;-73
2022/01/07 13:50:38;;;;;;;25.63;15.85;;;;;;;;;;5095214;28;20031;-74
2022/01/07 13:53:31;;;;;;;32.10;16.48;;;;;;;;;;5095092;28;20020;-73
2022/01/07 13:56:06;;;;;;;28.05;17.88;;;;;;;;;;5091754;28;20083;-73
2022/01/07 13:58:32;;;;;;;25.83;15.93;;;;;;;;;;5093801;28;20460;-72
2022/01/07 14:01:05;;;;;;;25.73;17.00;;;;;;;;;;5094950;28;20032;-73
2022/01/07 14:03:48;;;;;;;27.08;17.88;;;;;;;;;;5094350;28;20020;-73
2022/01/07 14:06:18;;;;;;;29.17;15.82;;;;;;;;;;5094841;28;20035;-73
2022/01/07 14:08:44;;;;;;;26.05;15.98;;;;;;;;;;5094613;28;20031;-73
2022/01/07 14:11:11;;;;;;;28.05;16.67;;;;;;;;;;5094224;28;20024;-73
2022/01/07 14:13:37;;;;;;;33.13;18.75;;;;;;;;;;5094451;28;20021;-74
2022/01/07 14:16:04;;;;;;;45.55;23.05;;;;;;;;;;5094611;28;20022;-74
2022/01/07 14:18:33;;;;;;;42.28;21.63;;;;;;;;;;5093750;28;20036;-73
2022/01/07 14:21:03;;;;;;;38.58;23.83;;;;;;;;;;5094638;28;20412;-73
2022/01/07 14:23:30;;;;;;;35.00;21.45;;;;;;;;;;5093965;28;20020;-73
2022/01/07 14:26:02;;;;;;;34.75;19.08;;;;;;;;;;5094489;28;20078;-74
2022/01/07 14:28:28;;;;;;;28.80;18.80;;;;;;;;;;5094368;28;20020;-73
2022/01/07 14:30:55;;;;;;;30.95;17.25;;;;;;;;;;5094067;28;20081;-73
2022/01/07 14:33:21;;;;;;;28.63;19.08;;;;;;;;;;5094405;28;20069;-73
2022/01/07 14:35:47;;;;;;;30.10;18.67;;;;;;;;;;5094251;28;20028;-73
2022/01/07 14:38:14;;;;;;;33.20;19.20;;;;;;;;;;5093982;28;20440;-73